AirNav   TITAN Aviation Fuels
 
 1154 users online  

20A Robbins Field Airport
Oneonta, Alabama, USA

GOING TO ONEONTA?


FAA INFORMATION EFFECTIVE 16 JUNE 2022

Location

FAA Identifier: 20A
Lat/Long: 33-58-16.6000N 086-22-49.4000W
33-58.276667N 086-22.823333W
33.9712778,-86.3803889
(estimated)
Elevation: 1124.9 ft. / 342.9 m (surveyed)
Variation: 03W (2010)
From city: 5 miles NE of ONEONTA, AL
Time zone: UTC -5 (UTC -6 during Standard Time)
Zip code: 35952

Airport Operations

Airport use: Open to the public
Control tower: no
ARTCC: ATLANTA CENTER
FSS: ANNISTON FLIGHT SERVICE STATION
NOTAMs facility: ANB (NOTAM-D service available)
Attendance: UNATNDD 24 HOURS/DAY
Wind indicator: lighted
Segmented circle: yes
Lights: ACTVT PAPI RWY 6; MIRL RWY 06/24 - CTAF.
Beacon: white-green (lighted land airport)
Operates sunset to sunrise.

Airport Communications

CTAF/UNICOM: 122.8
BIRMINGHAM APPROACH: 125.45 [0600-2300]
BIRMINGHAM DEPARTURE: 125.45 [0600-2300]
WX AWOS-3PT at GAD (14 nm E): 127.825 (256-442-7094)
WX AWOS-3PT at 8A0 (17 nm N): 119.575 (256-891-8259)

Airport Services

Parking: tiedowns
Airframe service: NONE
Powerplant service: NONE
Bottled oxygen: NONE
Bulk oxygen: NONE

Runway Information

Runway 6/24

Dimensions: 4203 x 80 ft. / 1281 x 24 m
Surface: asphalt, in excellent condition
Weight bearing capacity: 
Single wheel: 20.0
Double wheel: 35.0
Double tandem: 55.0
Runway edge lights: medium intensity
RUNWAY 6  RUNWAY 24
Latitude: 33-58.077035N33-58.476817N
Longitude: 086-23.163130W086-22.483875W
Elevation: 1108.1 ft.1124.8 ft.
Traffic pattern: leftleft
Runway heading: 058 magnetic, 055 true238 magnetic, 235 true
Displaced threshold: no105 ft.
Declared distances: TORA:4098 TODA:4098 ASDA:4098 LDA:4098TORA:4203 TODA:4203 ASDA:4203 LDA:4098
Markings: nonprecision, in good conditionnonprecision, in good condition
Visual slope indicator: 2-light PAPI on left (4.00 degrees glide path)2-light PAPI on left (3.00 degrees glide path)
Touchdown point: yes, no lightsyes, no lights
Obstructions: 12 ft. trees, 282 ft. from runway, 98 ft. right of centerline, 6:1 slope to clear47 ft. trees, 605 ft. from runway, 206 ft. right of centerline, 8:1 slope to clear

Airport Ownership and Management from official FAA records

Ownership: Publicly-owned
Owner: CITY OF ONEONTA & BLOUNT CTY.
202 3RD AVE EAST
ONEONTA, AL 35121
Phone 205-274-2150
Manager: BRANDON HORTON
202 3RD AVE EAST
ONEONTA, AL 35121
Phone 205-960-3553

Airport Operational Statistics

Aircraft based on the field: 9
Single engine airplanes: 7
Multi engine airplanes: 2
    
Aircraft operations: avg 53/week *
53% transient general aviation
47% local general aviation
* for 12-month period ending 31 May 2019

Additional Remarks

DEER ON & INVOF ARPT.
FOR CD CTC BIRMINGHAM APCH AT (205) 769-3890.

Instrument Procedures

NOTE: All procedures below are presented as PDF files. If you need a reader for these files, you should download the free Adobe Reader.

NOT FOR NAVIGATION. Please procure official charts for flight.
FAA instrument procedures published for use from 16 June 2022 at 0901Z to 14 July 2022 at 0900z.

 
IAPs - Instrument Approach Procedures
RNAV (GPS) RWY 06   download (212KB)
RNAV (GPS) RWY 24   download (231KB)
NOTE: Special Take-Off Minimums/Departure Procedures apply   download (479KB)

Other nearby airports with instrument procedures:

KGAD - Northeast Alabama Regional Airport (14 nm E)
8A0 - Albertville Regional Airport-Thomas J Brumlik Field (17 nm N)
KPLR - St Clair County Airport (26 nm S)
8A1 - Guntersville Municipal Airport - Joe Starnes Field (27 nm N)
KASN - Talladega Municipal Airport (29 nm SE)
 
Loc | Ops | Rwys | IFR | FBO | Links
Com | Nav | Svcs | Stats | Notes
Area around 20A (Robbins Field Airport)
 
Road maps at: MapQuest Bing Google
 
Aerial photo
WARNING: Photo may not be current or correct
Aerial photo of 20A (Robbins Field Airport)
Do you have a better or more recent aerial photo of Robbins Field Airport that you would like to share? If so, please send us your photo.

 
Sectional chart

 
Airport distance calculator
Flying to Robbins Field Airport? Find the distance to fly.

From to 20A

Sunrise and sunset
Times for 28-Jun-2022
 Local
(UTC-5)
 Zulu
(UTC)
Morning civil twilight05:0910:09
Sunrise05:3810:38
Sunset20:0001:00
Evening civil twilight20:2901:29

Current date and time
Zulu (UTC)  29-Jun-2022 01:31:38
Local (UTC-5)  28-Jun-2022 20:31:38
 
METAR
KGAD 
16nm E 
290056Z AUTO 05006KT 10SM OVC080 23/21 A3014 RMK AO2 TSB05E20 SLP206 T02330211 $
K8A0 
17nm N 
290115Z AUTO 12004KT BKN060 BKN080 22/18 A3015 RMK AO2
KPLR 
26nm S 
290115Z AUTO 04006KT 9SM FEW043 SCT055 OVC070 23/21 A3012 RMK A01
KASN 
29nm SE 
290115Z AUTO 02004KT 10SM VCTS CLR A3013 RMK AO2 LTG DSNT SE AND S
KCMD 
30nm NW 
290115Z AUTO 11008G13KT 080V150 10SM BKN055 BKN080 25/20 A3013 RMK AO2
KBHM 
30nm SW 
290109Z 09005KT 7SM FEW030 SCT060 OVC100 23/21 A3013 RMK AO2 LTG DSNT S AND SW RAE08 TSE03 TS MOV E P0002 T02280206 $
TAF
KASN 
29nm SE 
281902Z 2819/2918 35005KT 6SM SHRA BR VCTS SCT050CB BKN070 TEMPO 2820/2823 VRB12G20KT 4SM TSRA BR BKN035CB FM282300 04005KT P6SM VCSH SCT050 OVC150 FM290300 08005KT P6SM BKN250 FM290900 VRB04KT P6SM OVC007 FM291600 VRB03KT P6SM BKN040 PROB30 2916/2918 4SM TSRA BR OVC025CB
KBHM 
30nm SW 
281727Z 2818/2918 03005KT P6SM SCT050 BKN150 FM282000 02006KT P6SM VCTS SCT050CB OVC250 FM282200 03005KT P6SM VCSH SCT050 BKN100 FM290100 VRB03KT P6SM BKN250 FM291100 VRB03KT P6SM OVC012 FM291600 VRB04KT P6SM BKN040 PROB30 2917/2918 4SM TSRA BR OVC025CB
KANB 
35nm SE 
281727Z 2818/2918 04005KT P6SM SCT050 BKN250 FM281900 06005KT 6SM SHRA BR SCT035 BKN070 TEMPO 2820/2823 VRB12G20KT 4SM TSRA BR BKN035CB FM282300 04005KT P6SM VCSH SCT050 OVC150 FM290300 08005KT P6SM BKN250 FM290900 VRB04KT P6SM OVC007 FM291600 VRB03KT P6SM BKN040 PROB30 2916/2918 4SM TSRA BR OVC025CB
NOTAMs
Click for the latest NOTAMs
NOTAMs are issued by the DoD/FAA and will open in a separate window not controlled by AirNav.

 

 
 

Would you like to see your business listed on this page?

 If your business provides an interesting product or service to pilots, flight crews, aircraft, or users of the Robbins Field Airport, you should consider listing it here.  To start the listing process, click on the button below
 
Add a business
 

Other Pages about Robbins Field Airport

Update a link
 
Copyright © AirNav, LLC. All rights reserved. Privacy Policy  Contact